createdAt,value
2022-11-16T00:00:34.079Z,18.15
2022-11-16T00:02:06.047Z,18.92
2022-11-16T00:03:37.981Z,18.98
2022-11-16T00:05:10.433Z,16.98
2022-11-16T00:06:42.160Z,19.42
2022-11-16T00:08:13.886Z,18.30
2022-11-16T00:09:45.604Z,18.02
2022-11-16T00:11:20.213Z,17.85
2022-11-16T00:12:52.048Z,21.02
2022-11-16T00:14:26.534Z,20.23
2022-11-16T00:15:58.442Z,19.08
2022-11-16T00:17:31.053Z,21.05
2022-11-16T00:19:05.113Z,19.38
2022-11-16T00:20:38.678Z,19.73
2022-11-16T00:22:10.413Z,20.23
2022-11-16T00:23:42.161Z,19.27
2022-11-16T00:25:13.953Z,22.88
2022-11-16T00:26:46.342Z,19.77
2022-11-16T00:28:18.319Z,20.88
2022-11-16T00:29:51.341Z,21.00
2022-11-16T00:31:23.760Z,24.63
2022-11-16T00:32:55.537Z,21.00
2022-11-16T00:34:27.545Z,20.17
2022-11-16T00:36:04.438Z,19.92
2022-11-16T00:37:36.173Z,17.95
2022-11-16T00:39:10.428Z,20.60
2022-11-16T00:40:42.188Z,21.27
2022-11-16T00:42:13.926Z,19.98
2022-11-16T00:43:45.674Z,19.45
2022-11-16T00:45:17.484Z,16.92
2022-11-16T00:46:49.280Z,17.00
2022-11-16T00:48:21.806Z,19.58
2022-11-16T00:49:53.665Z,18.08
2022-11-16T00:51:25.765Z,17.80
2022-11-16T00:52:57.739Z,17.73
2022-11-16T00:54:29.804Z,17.15
2022-11-16T00:56:02.191Z,18.38
2022-11-16T00:57:36.498Z,19.45
2022-11-16T00:59:09.244Z,17.60
2022-11-16T01:00:41.657Z,17.67
2022-11-16T01:02:13.460Z,16.50
2022-11-16T01:03:46.163Z,21.30
2022-11-16T01:05:18.309Z,19.88
2022-11-16T01:06:50.211Z,18.13
2022-11-16T01:08:21.980Z,17.10
2022-11-16T01:09:53.729Z,15.25
2022-11-16T01:11:44.034Z,17.52
2022-11-16T01:13:15.792Z,18.38
2022-11-16T01:14:49.204Z,17.63
2022-11-16T01:16:23.208Z,17.77
2022-11-16T01:17:56.169Z,16.30
2022-11-16T01:19:28.233Z,18.60
2022-11-16T01:21:00.006Z,18.52
2022-11-16T01:22:32.497Z,18.20
2022-11-16T01:24:04.508Z,17.42
2022-11-16T01:25:36.300Z,16.40
2022-11-16T01:27:08.185Z,15.80
2022-11-16T01:28:42.832Z,17.08
2022-11-16T01:30:16.823Z,20.05
2022-11-16T01:31:57.439Z,17.10
2022-11-16T01:33:29.933Z,16.95
2022-11-16T01:35:02.131Z,18.70
2022-11-16T01:36:37.261Z,18.10
2022-11-16T01:38:10.214Z,15.60
2022-11-16T01:39:41.980Z,13.82
2022-11-16T01:41:19.322Z,17.30
2022-11-16T01:42:56.193Z,17.00
2022-11-16T01:44:33.966Z,18.05
2022-11-16T01:46:11.266Z,17.38
2022-11-16T01:47:43.949Z,17.52
2022-11-16T01:49:21.641Z,17.08
2022-11-16T01:50:57.608Z,17.70
2022-11-16T01:52:32.913Z,15.77
2022-11-16T01:54:08.671Z,17.85
2022-11-16T01:55:44.684Z,22.00
2022-11-16T01:57:29.445Z,19.48
2022-11-16T01:59:09.618Z,19.48
2022-11-16T02:00:41.524Z,16.33
2022-11-16T02:02:31.517Z,19.02
2022-11-16T02:04:03.708Z,17.40
2022-11-16T02:06:08.077Z,17.40
2022-11-16T02:08:34.777Z,20.08
2022-11-16T02:10:30.718Z,18.33
2022-11-16T02:12:11.982Z,18.85
2022-11-16T02:14:14.624Z,18.52
2022-11-16T02:16:06.054Z,20.27
2022-11-16T02:17:49.871Z,23.20
2022-11-16T02:20:15.980Z,18.58
2022-11-16T02:22:29.317Z,18.40
2022-11-16T02:24:13.005Z,19.10
2022-11-16T02:25:59.895Z,18.80
2022-11-16T02:27:49.809Z,20.95
2022-11-16T02:29:43.114Z,17.85
2022-11-16T02:31:24.568Z,16.63
2022-11-16T02:33:09.040Z,16.73
2022-11-16T02:34:45.232Z,18.77
2022-11-16T02:36:22.338Z,17.65
2022-11-16T02:38:03.510Z,16.23
2022-11-16T02:39:39.077Z,17.63
2022-11-16T02:41:17.733Z,22.55
2022-11-16T02:43:08.921Z,16.67
2022-11-16T02:44:45.493Z,19.17
2022-11-16T02:46:27.077Z,18.27
2022-11-16T02:49:43.597Z,19.02
2022-11-16T02:51:17.335Z,18.92
2022-11-16T02:52:49.769Z,21.77
2022-11-16T02:54:23.774Z,19.45
2022-11-16T02:55:57.837Z,22.67
2022-11-16T02:57:38.654Z,20.40
2022-11-16T02:59:16.482Z,16.55
2022-11-16T03:01:08.908Z,19.95
2022-11-16T03:02:53.821Z,19.75
2022-11-16T03:04:37.719Z,19.30
2022-11-16T03:06:20.913Z,22.30
2022-11-16T03:08:00.416Z,19.30
2022-11-16T03:09:39.031Z,19.58
2022-11-16T03:11:32.721Z,19.38
2022-11-16T03:13:10.153Z,19.27
2022-11-16T03:14:48.765Z,20.65
2022-11-16T03:16:37.427Z,23.23
2022-11-16T03:18:10.091Z,21.30
2022-11-16T03:19:45.555Z,18.55
2022-11-16T03:21:22.245Z,19.00
2022-11-16T03:22:59.145Z,21.55
2022-11-16T03:24:31.773Z,21.90
2022-11-16T03:26:08.017Z,17.92
2022-11-16T03:28:01.345Z,20.88
2022-11-16T03:29:46.814Z,18.70
2022-11-16T03:31:30.406Z,16.45
2022-11-16T03:33:27.942Z,21.10
2022-11-16T03:35:05.058Z,19.38
2022-11-16T03:36:43.130Z,19.33
2022-11-16T03:38:16.168Z,18.77
2022-11-16T03:39:53.336Z,16.15
2022-11-16T03:41:29.101Z,19.08
2022-11-16T03:43:03.273Z,18.80
2022-11-16T03:44:36.015Z,18.02
2022-11-16T03:46:13.908Z,17.27
2022-11-16T03:47:46.017Z,15.60
2022-11-16T03:49:21.886Z,15.18
2022-11-16T03:50:53.702Z,14.95
2022-11-16T03:52:25.748Z,15.32
2022-11-16T03:53:57.612Z,15.60
2022-11-16T03:55:29.361Z,15.02
2022-11-16T03:57:01.189Z,15.35
2022-11-16T03:58:33.319Z,16.98
2022-11-16T04:00:07.654Z,16.08
2022-11-16T04:01:45.195Z,18.05
2022-11-16T04:03:18.690Z,14.07
2022-11-16T04:05:10.484Z,17.13
2022-11-16T04:07:00.942Z,16.95
2022-11-16T04:08:53.108Z,19.00
2022-11-16T04:10:43.616Z,16.95
2022-11-16T04:12:33.971Z,18.55
2022-11-16T04:14:24.749Z,15.77
2022-11-16T04:16:15.311Z,15.83
2022-11-16T04:18:07.642Z,17.65
2022-11-16T04:19:58.403Z,18.65
2022-11-16T04:21:56.512Z,15.68
2022-11-16T04:23:50.057Z,18.02
2022-11-16T04:25:27.209Z,13.48
2022-11-16T04:27:21.731Z,14.63
2022-11-16T04:28:53.539Z,15.93
2022-11-16T04:30:25.647Z,17.02
2022-11-16T04:32:16.115Z,16.17
2022-11-16T04:34:08.713Z,20.42
2022-11-16T04:35:59.398Z,15.77
2022-11-16T04:37:49.400Z,16.67
2022-11-16T04:39:25.792Z,15.52
2022-11-16T04:40:58.020Z,19.48
2022-11-16T04:42:30.499Z,15.20
2022-11-16T04:44:02.406Z,13.90
2022-11-16T04:45:52.864Z,15.10
2022-11-16T04:47:28.886Z,15.85
2022-11-16T04:49:00.633Z,16.83
2022-11-16T04:50:33.525Z,13.55
2022-11-16T04:52:05.979Z,14.75
2022-11-16T04:53:38.484Z,15.02
2022-11-16T04:55:20.531Z,16.08
2022-11-16T04:56:53.787Z,16.23
2022-11-16T04:58:25.940Z,18.70
2022-11-16T04:59:58.593Z,14.57
2022-11-16T05:01:49.094Z,17.70
2022-11-16T05:03:20.973Z,16.13
2022-11-16T05:04:52.755Z,15.20
2022-11-16T05:06:25.587Z,14.80
2022-11-16T05:07:57.408Z,15.48
2022-11-16T05:09:32.971Z,15.25
2022-11-16T05:11:04.896Z,14.95
2022-11-16T05:12:38.595Z,13.63
2022-11-16T05:14:12.616Z,14.82
2022-11-16T05:15:46.594Z,13.68
2022-11-16T05:17:19.481Z,16.08
2022-11-16T05:19:11.435Z,13.75
2022-11-16T05:21:02.110Z,17.42
2022-11-16T05:22:39.727Z,16.27
2022-11-16T05:24:30.152Z,15.65
2022-11-16T05:26:02.061Z,13.80
2022-11-16T05:27:34.418Z,16.40
2022-11-16T05:29:06.188Z,16.63
2022-11-16T05:30:38.060Z,13.70
2022-11-16T05:32:11.863Z,13.40
2022-11-16T05:33:44.513Z,12.95
2022-11-16T05:35:17.508Z,12.65
2022-11-16T05:36:49.297Z,13.18
2022-11-16T05:38:21.142Z,13.48
2022-11-16T05:39:57.176Z,13.00
2022-11-16T05:41:37.864Z,15.38
2022-11-16T05:43:09.906Z,13.80
2022-11-16T05:44:47.442Z,14.65
2022-11-16T05:46:20.044Z,14.27
2022-11-16T05:47:52.333Z,14.65
2022-11-16T05:49:25.725Z,13.57
2022-11-16T05:50:59.921Z,14.98
2022-11-16T05:52:34.098Z,14.13
2022-11-16T05:54:15.705Z,16.40
2022-11-16T05:55:47.686Z,17.58
2022-11-16T05:57:19.511Z,14.13
2022-11-16T05:58:51.514Z,11.40
2022-11-16T06:00:23.396Z,15.43
2022-11-16T06:01:57.992Z,13.88
2022-11-16T06:03:31.007Z,13.38
2022-11-16T06:05:04.420Z,12.38
2022-11-16T06:06:36.348Z,12.82
2022-11-16T06:08:08.495Z,12.85
2022-11-16T06:09:40.257Z,14.85
2022-11-16T06:11:20.619Z,15.77
2022-11-16T06:12:52.859Z,13.50
2022-11-16T06:14:24.772Z,11.82
2022-11-16T06:15:56.653Z,13.57
2022-11-16T06:17:28.493Z,15.25
2022-11-16T06:19:00.771Z,12.63
2022-11-16T06:20:34.066Z,15.40
2022-11-16T06:22:05.994Z,12.32
2022-11-16T06:23:38.729Z,12.43
2022-11-16T06:25:11.129Z,12.57
2022-11-16T06:26:47.259Z,14.75
2022-11-16T06:28:19.107Z,12.90
2022-11-16T06:29:51.035Z,12.93
2022-11-16T06:31:22.835Z,13.35
2022-11-16T06:32:54.710Z,11.15
2022-11-16T06:34:26.464Z,13.52
2022-11-16T06:35:58.249Z,17.08
2022-11-16T06:37:30.588Z,11.88
2022-11-16T06:39:02.412Z,14.02
2022-11-16T06:40:38.397Z,12.20
2022-11-16T06:42:10.552Z,15.63
2022-11-16T06:43:43.571Z,14.45
2022-11-16T06:45:15.744Z,15.52
2022-11-16T06:46:53.109Z,12.88
2022-11-16T06:48:24.963Z,16.05
2022-11-16T06:49:56.973Z,12.20
2022-11-16T06:51:29.045Z,13.15
2022-11-16T06:53:01.063Z,11.95
2022-11-16T06:54:34.077Z,13.00
2022-11-16T06:56:06.488Z,12.75
2022-11-16T06:57:43.797Z,11.93
2022-11-16T06:59:15.546Z,12.88
2022-11-16T07:00:48.078Z,13.80
2022-11-16T07:02:22.895Z,13.63
2022-11-16T07:03:56.355Z,13.25
2022-11-16T07:05:28.143Z,12.13
2022-11-16T07:07:00.199Z,10.88
2022-11-16T07:08:32.406Z,12.68
2022-11-16T07:10:05.051Z,12.65
2022-11-16T07:11:37.281Z,14.27
2022-11-16T07:13:09.095Z,11.52
2022-11-16T07:14:45.434Z,12.55
2022-11-16T07:16:17.852Z,13.65
2022-11-16T07:17:56.307Z,12.95
2022-11-16T07:19:28.085Z,13.32
2022-11-16T07:21:04.969Z,11.27
2022-11-16T07:22:36.936Z,12.07
2022-11-16T07:24:08.753Z,10.60
2022-11-16T07:25:40.543Z,11.23
2022-11-16T07:27:12.629Z,13.18
2022-11-16T07:28:48.885Z,14.07
2022-11-16T07:30:24.845Z,11.98
2022-11-16T07:32:09.743Z,13.30
2022-11-16T07:33:59.897Z,15.88
2022-11-16T07:35:54.696Z,14.40
2022-11-16T07:37:26.565Z,13.95
2022-11-16T07:38:58.470Z,13.45
2022-11-16T07:40:30.260Z,14.18
2022-11-16T07:42:02.593Z,11.68
2022-11-16T07:43:53.253Z,15.23
2022-11-16T07:45:29.638Z,16.27
2022-11-16T07:47:05.501Z,14.98
2022-11-16T07:48:38.957Z,13.18
2022-11-16T07:50:22.398Z,13.35
2022-11-16T07:51:55.922Z,13.90
2022-11-16T07:53:41.550Z,14.35
2022-11-16T07:55:13.727Z,12.43
2022-11-16T07:56:45.914Z,12.45
2022-11-16T07:58:17.841Z,11.75
2022-11-16T07:59:50.015Z,13.32
2022-11-16T08:01:21.961Z,11.30
2022-11-16T08:02:56.101Z,10.13
2022-11-16T08:04:27.911Z,12.35
2022-11-16T08:06:01.347Z,11.75
2022-11-16T08:07:35.391Z,12.63
2022-11-16T08:09:07.197Z,12.57
2022-11-16T08:10:39.813Z,12.90
2022-11-16T08:12:12.213Z,11.75
2022-11-16T08:13:44.108Z,14.10
2022-11-16T08:15:16.130Z,11.70
2022-11-16T08:16:48.027Z,13.90
2022-11-16T08:18:20.804Z,11.07
2022-11-16T08:19:53.716Z,12.52
2022-11-16T08:21:26.431Z,12.68
2022-11-16T08:23:01.174Z,11.55
2022-11-16T08:24:36.292Z,12.98
2022-11-16T08:26:14.714Z,12.30
2022-11-16T08:27:47.958Z,13.93
2022-11-16T08:29:22.240Z,11.25
2022-11-16T08:30:57.063Z,11.80
2022-11-16T08:32:30.190Z,12.38
2022-11-16T08:34:02.196Z,13.07
2022-11-16T08:35:34.979Z,13.10
2022-11-16T08:37:07.253Z,11.20
2022-11-16T08:38:50.131Z,12.13
2022-11-16T08:40:23.533Z,11.85
2022-11-16T08:41:55.369Z,12.20
2022-11-16T08:43:27.382Z,12.32
2022-11-16T08:44:59.169Z,12.00
2022-11-16T08:46:30.951Z,12.23
2022-11-16T08:48:13.105Z,12.40
2022-11-16T08:49:49.329Z,11.73
2022-11-16T08:51:22.730Z,11.50
2022-11-16T08:53:00.953Z,11.13
2022-11-16T08:54:32.797Z,13.20
2022-11-16T08:56:06.189Z,9.32
2022-11-16T08:57:37.951Z,11.73
2022-11-16T08:59:14.030Z,9.75
2022-11-16T09:00:52.192Z,10.25
2022-11-16T09:02:25.838Z,10.27
2022-11-16T09:03:57.857Z,9.73
2022-11-16T09:05:29.676Z,10.75
2022-11-16T09:07:01.528Z,11.40
2022-11-16T09:08:34.153Z,9.48
2022-11-16T09:10:07.406Z,10.30
2022-11-16T09:11:39.192Z,10.70
2022-11-16T09:13:10.965Z,10.23
2022-11-16T09:14:42.740Z,10.13
2022-11-16T09:16:17.632Z,8.65
2022-11-16T09:17:49.914Z,10.20
2022-11-16T09:19:21.731Z,9.70
2022-11-16T09:20:53.852Z,11.40
2022-11-16T09:22:25.628Z,10.10
2022-11-16T09:23:58.446Z,10.23
2022-11-16T09:25:30.202Z,10.35
2022-11-16T09:27:02.060Z,10.13
2022-11-16T09:28:34.337Z,10.55
2022-11-16T09:30:07.822Z,10.82
2022-11-16T09:31:40.067Z,12.32
2022-11-16T09:33:12.834Z,11.20
2022-11-16T09:34:44.586Z,13.63
2022-11-16T09:36:16.340Z,15.82
2022-11-16T09:37:48.080Z,10.88
2022-11-16T09:39:30.485Z,12.18
2022-11-16T09:41:18.231Z,11.10
2022-11-16T09:43:13.960Z,10.90
2022-11-16T09:45:12.522Z,13.73
2022-11-16T09:46:48.613Z,13.32
2022-11-16T09:48:23.890Z,11.07
2022-11-16T09:50:03.711Z,11.23
2022-11-16T09:51:40.197Z,11.63
2022-11-16T09:53:27.203Z,8.20
2022-11-16T09:55:03.791Z,12.35
2022-11-16T09:56:40.500Z,10.30
2022-11-16T09:58:17.893Z,10.55
2022-11-16T09:59:56.532Z,9.73
2022-11-16T10:02:03.478Z,10.02
2022-11-16T10:03:42.849Z,11.45
2022-11-16T10:05:39.103Z,11.23
2022-11-16T10:07:17.776Z,13.30
2022-11-16T10:08:52.126Z,12.63
2022-11-16T10:10:50.604Z,10.60
2022-11-16T10:12:51.028Z,12.38
2022-11-16T10:14:41.041Z,12.77
2022-11-16T10:16:37.528Z,10.65
2022-11-16T10:18:27.608Z,12.02
2022-11-16T10:20:23.060Z,12.07
2022-11-16T10:22:15.180Z,10.68
2022-11-16T10:24:23.185Z,10.95
2022-11-16T10:26:11.391Z,12.02
2022-11-16T10:28:17.176Z,11.20
2022-11-16T10:30:17.183Z,11.20
2022-11-16T10:32:03.441Z,11.80
2022-11-16T10:33:37.680Z,9.23
2022-11-16T10:35:12.500Z,15.82
2022-11-16T10:36:44.529Z,10.48
2022-11-16T10:38:20.524Z,10.75
2022-11-16T10:39:55.443Z,11.38
2022-11-16T10:41:42.295Z,10.50
2022-11-16T10:43:15.536Z,11.48
2022-11-16T10:45:10.112Z,10.75
2022-11-16T10:46:46.889Z,10.98
2022-11-16T10:48:41.419Z,10.27
2022-11-16T10:50:24.731Z,10.88
2022-11-16T10:51:56.595Z,13.07
2022-11-16T10:53:37.876Z,8.77
2022-11-16T10:56:56.683Z,12.98
2022-11-16T10:58:49.166Z,10.02
2022-11-16T11:00:44.123Z,10.68
2022-11-16T11:02:18.873Z,10.27
2022-11-16T11:03:50.931Z,9.82
2022-11-16T11:05:22.772Z,10.68
2022-11-16T11:06:57.552Z,9.18
2022-11-16T11:08:31.581Z,9.88
2022-11-16T11:10:04.669Z,10.07
2022-11-16T11:11:54.937Z,9.43
2022-11-16T11:13:26.944Z,12.88
2022-11-16T11:15:00.349Z,12.35
2022-11-16T11:16:32.775Z,9.35
2022-11-16T11:18:25.973Z,8.48
2022-11-16T11:20:25.034Z,8.80
2022-11-16T11:22:00.748Z,12.75
2022-11-16T11:23:44.328Z,9.45
2022-11-16T11:25:23.073Z,10.02
2022-11-16T11:26:58.823Z,9.48
2022-11-16T11:28:33.769Z,9.52
2022-11-16T11:30:06.318Z,8.35
2022-11-16T11:31:47.183Z,10.18
2022-11-16T11:33:21.849Z,9.77
2022-11-16T11:34:56.284Z,8.48
2022-11-16T11:36:39.467Z,10.32
2022-11-16T11:38:15.137Z,9.07
2022-11-16T11:39:47.292Z,10.02
2022-11-16T11:41:19.316Z,8.95
2022-11-16T11:43:19.015Z,9.20
2022-11-16T11:45:06.172Z,9.88
2022-11-16T11:47:28.558Z,8.32
2022-11-16T11:48:49.512Z,9.10
2022-11-16T11:50:41.335Z,9.02
2022-11-16T11:52:20.714Z,7.90
2022-11-16T11:53:52.389Z,8.00
2022-11-16T11:55:24.213Z,8.48
2022-11-16T11:56:55.990Z,8.25
2022-11-16T11:58:34.329Z,7.10
2022-11-16T12:00:06.991Z,8.60
2022-11-16T12:01:48.204Z,7.97
2022-11-16T12:03:38.896Z,8.88
2022-11-16T12:05:35.232Z,8.07
2022-11-16T12:07:27.447Z,8.57
2022-11-16T12:09:14.548Z,9.05
2022-11-16T12:10:53.543Z,8.55
2022-11-16T12:12:31.021Z,7.93
2022-11-16T12:14:14.782Z,7.38
2022-11-16T12:16:13.779Z,7.80
2022-11-16T12:17:57.710Z,8.70
2022-11-16T12:19:41.277Z,8.18
2022-11-16T12:21:18.790Z,7.65
2022-11-16T12:23:32.595Z,7.00
2022-11-16T12:25:20.424Z,8.43
2022-11-16T12:27:01.108Z,9.18
2022-11-16T12:28:59.253Z,9.07
2022-11-16T12:30:40.653Z,10.10
2022-11-16T12:34:15.898Z,12.05
2022-11-16T12:36:20.583Z,7.85
2022-11-16T12:38:09.483Z,8.65
2022-11-16T12:40:08.457Z,7.10
2022-11-16T12:41:52.819Z,7.45
2022-11-16T12:43:46.422Z,6.70
2022-11-16T12:45:32.747Z,7.35
2022-11-16T12:47:31.060Z,7.60
2022-11-16T12:49:34.430Z,7.85
2022-11-16T12:51:36.924Z,7.25
2022-11-16T12:53:14.511Z,7.38
2022-11-16T12:55:26.839Z,7.22
2022-11-16T12:57:11.835Z,7.90
2022-11-16T12:59:25.758Z,6.97
2022-11-16T13:01:03.540Z,8.30
2022-11-16T13:03:02.536Z,6.82
2022-11-16T13:04:42.447Z,7.75
2022-11-16T13:06:21.196Z,6.78
2022-11-16T13:08:05.489Z,7.07
2022-11-16T13:09:42.014Z,6.47
2022-11-16T13:11:26.002Z,7.57
2022-11-16T13:14:57.740Z,7.72
2022-11-16T13:16:29.813Z,6.63
2022-11-16T13:18:04.091Z,6.60
2022-11-16T13:19:43.978Z,7.00
2022-11-16T13:21:25.766Z,6.45
2022-11-16T13:23:11.424Z,6.88
2022-11-16T13:24:45.870Z,7.15
2022-11-16T13:26:38.862Z,6.20
2022-11-16T13:28:23.314Z,6.32
2022-11-16T13:30:15.796Z,8.30
2022-11-16T13:32:18.626Z,7.28
2022-11-16T13:33:57.724Z,8.52
2022-11-16T13:35:29.700Z,7.00
2022-11-16T13:37:01.527Z,6.13
2022-11-16T13:38:53.427Z,6.82
2022-11-16T13:40:31.268Z,7.53
2022-11-16T13:42:11.560Z,7.13
2022-11-16T13:43:49.563Z,6.72
2022-11-16T13:45:22.709Z,7.43
2022-11-16T13:47:04.203Z,6.82
2022-11-16T13:48:38.642Z,7.10
2022-11-16T13:50:19.932Z,6.57
2022-11-16T13:52:21.402Z,7.25
2022-11-16T13:55:48.966Z,7.05
2022-11-16T13:57:32.956Z,7.03
2022-11-16T13:59:04.730Z,7.85
2022-11-16T14:00:40.261Z,6.95
2022-11-16T14:02:31.299Z,7.35
2022-11-16T14:04:41.144Z,7.35
2022-11-16T14:06:44.762Z,8.90
2022-11-16T14:08:19.391Z,8.82
2022-11-16T14:09:51.260Z,6.82
2022-11-16T14:11:41.211Z,7.22
2022-11-16T14:13:36.409Z,8.07
2022-11-16T14:15:22.158Z,8.15
2022-11-16T14:16:53.954Z,8.77
2022-11-16T14:18:37.117Z,7.85
2022-11-16T14:20:12.809Z,8.52
2022-11-16T14:22:08.269Z,9.40
2022-11-16T14:23:48.822Z,10.00
2022-11-16T14:25:37.427Z,9.90
2022-11-16T14:27:30.282Z,10.60
2022-11-16T14:29:28.090Z,10.32
2022-11-16T14:31:24.373Z,10.32
2022-11-16T14:32:57.776Z,10.02
2022-11-16T14:34:43.606Z,9.57
2022-11-16T14:36:15.450Z,9.50
2022-11-16T14:37:57.540Z,8.23
2022-11-16T14:39:37.512Z,9.98
2022-11-16T14:41:21.556Z,11.18
2022-11-16T14:43:16.069Z,10.90
2022-11-16T14:44:50.367Z,11.40
2022-11-16T14:46:28.251Z,9.60
2022-11-16T14:48:04.101Z,11.30
2022-11-16T14:49:37.620Z,10.18
2022-11-16T14:51:21.791Z,10.45
2022-11-16T14:52:59.664Z,11.07
2022-11-16T14:54:37.431Z,13.18
2022-11-16T14:56:14.102Z,11.70
2022-11-16T14:57:45.850Z,11.60
2022-11-16T14:59:17.929Z,11.27
2022-11-16T15:01:00.382Z,16.13
2022-11-16T15:02:32.730Z,13.27
2022-11-16T15:04:07.342Z,10.68
2022-11-16T15:05:39.312Z,11.68
2022-11-16T15:07:13.078Z,11.40
2022-11-16T15:08:49.849Z,10.85
2022-11-16T15:10:27.785Z,10.48
2022-11-16T15:12:21.444Z,12.52
2022-11-16T15:13:54.328Z,12.82
2022-11-16T15:15:31.299Z,11.98
2022-11-16T15:17:03.127Z,12.88
2022-11-16T15:18:34.973Z,10.88
2022-11-16T15:20:16.184Z,11.10
2022-11-16T15:21:59.093Z,19.45
2022-11-16T15:23:31.130Z,16.38
2022-11-16T15:25:02.929Z,15.02
2022-11-16T15:26:34.731Z,15.52
2022-11-16T15:28:18.501Z,15.85
2022-11-16T15:29:50.352Z,18.45
2022-11-16T15:31:23.988Z,21.90
2022-11-16T15:32:56.081Z,23.35
2022-11-16T15:34:27.886Z,23.95
2022-11-16T15:35:59.877Z,24.88
2022-11-16T15:37:31.690Z,24.48
2022-11-16T15:39:05.415Z,24.38
2022-11-16T15:40:37.581Z,23.73
2022-11-16T15:42:14.975Z,23.02
2022-11-16T15:44:12.318Z,27.33
2022-11-16T15:45:45.619Z,23.67
2022-11-16T15:47:17.476Z,26.85
2022-11-16T15:48:49.577Z,25.98
2022-11-16T15:50:23.534Z,28.40
2022-11-16T15:51:55.285Z,27.38
2022-11-16T15:53:41.844Z,26.45
2022-11-16T15:55:25.512Z,26.98
2022-11-16T15:57:12.022Z,28.83
2022-11-16T15:58:44.500Z,28.83
2022-11-16T16:00:23.225Z,30.90
2022-11-16T16:01:55.637Z,30.52
2022-11-16T16:03:30.279Z,31.75
2022-11-16T16:05:02.052Z,26.23
2022-11-16T16:06:57.996Z,26.17
2022-11-16T16:08:32.791Z,25.63
2022-11-16T16:10:19.609Z,25.00
2022-11-16T16:11:52.550Z,26.02
2022-11-16T16:13:29.339Z,28.38
2022-11-16T16:15:23.967Z,25.92
2022-11-16T16:16:58.941Z,24.52
2022-11-16T16:18:42.570Z,25.88
2022-11-16T16:20:19.513Z,28.35
2022-11-16T16:21:51.843Z,26.27
2022-11-16T16:23:25.612Z,26.52
2022-11-16T16:24:57.710Z,24.38
2022-11-16T16:26:29.940Z,25.25
2022-11-16T16:28:02.115Z,28.52
2022-11-16T16:29:33.830Z,24.70
2022-11-16T16:31:05.972Z,25.60
2022-11-16T16:32:37.975Z,26.63
2022-11-16T16:34:12.535Z,25.02
2022-11-16T16:35:45.638Z,25.70
2022-11-16T16:37:17.432Z,22.70
2022-11-16T16:38:49.221Z,25.10
2022-11-16T16:40:20.996Z,26.10
2022-11-16T16:41:52.765Z,24.50
2022-11-16T16:43:24.521Z,23.17
2022-11-16T16:44:59.496Z,26.77
2022-11-16T16:46:31.216Z,24.08
2022-11-16T16:48:03.165Z,24.48
2022-11-16T16:49:35.557Z,23.45
2022-11-16T16:51:11.563Z,23.40
2022-11-16T16:52:43.292Z,23.20
2022-11-16T16:54:16.055Z,19.92
2022-11-16T16:55:49.043Z,22.80
2022-11-16T16:57:20.798Z,21.30
2022-11-16T16:58:52.565Z,22.88
2022-11-16T17:00:25.339Z,24.05
2022-11-16T17:01:58.067Z,25.52
2022-11-16T17:03:32.563Z,21.92
2022-11-16T17:05:05.129Z,21.42
2022-11-16T17:06:38.545Z,23.42
2022-11-16T17:08:12.879Z,25.73
2022-11-16T17:09:44.860Z,24.05
2022-11-16T17:11:17.989Z,20.98
2022-11-16T17:12:53.230Z,20.73
2022-11-16T17:14:25.092Z,21.58
2022-11-16T17:15:56.843Z,20.15
2022-11-16T17:17:28.643Z,21.52
2022-11-16T17:19:00.443Z,20.65
2022-11-16T17:20:32.873Z,23.08
2022-11-16T17:22:04.842Z,21.90
2022-11-16T17:23:37.497Z,20.02
2022-11-16T17:25:10.662Z,20.58
2022-11-16T17:26:42.605Z,21.10
2022-11-16T17:28:14.357Z,19.15
2022-11-16T17:29:46.114Z,21.95
2022-11-16T17:31:17.854Z,23.52
2022-11-16T17:32:49.625Z,22.40
2022-11-16T17:34:21.527Z,19.10
2022-11-16T17:35:57.269Z,20.23
2022-11-16T17:37:28.999Z,19.95
2022-11-16T17:39:00.815Z,21.27
2022-11-16T17:40:32.568Z,19.60
2022-11-16T17:42:04.486Z,21.73
2022-11-16T17:43:37.012Z,23.90
2022-11-16T17:45:09.286Z,20.60
2022-11-16T17:46:40.992Z,18.40
2022-11-16T17:48:12.841Z,18.27
2022-11-16T17:49:44.646Z,17.45
2022-11-16T17:51:19.200Z,16.98
2022-11-16T17:52:50.963Z,17.33
2022-11-16T17:54:22.691Z,17.52
2022-11-16T17:55:54.900Z,17.15
2022-11-16T17:57:26.658Z,17.13
2022-11-16T17:58:58.583Z,15.90
2022-11-16T18:00:30.392Z,16.15
2022-11-16T18:02:02.124Z,14.98
2022-11-16T18:03:37.656Z,14.52
2022-11-16T18:05:09.980Z,15.07
2022-11-16T18:06:41.713Z,13.90
2022-11-16T18:08:13.462Z,13.48
2022-11-16T18:09:45.187Z,14.75
2022-11-16T18:11:19.438Z,12.77
2022-11-16T18:12:52.569Z,13.52
2022-11-16T18:14:24.329Z,11.65
2022-11-16T18:16:02.500Z,11.57
2022-11-16T18:17:36.272Z,12.85
2022-11-16T18:19:08.010Z,13.05
2022-11-16T18:20:39.840Z,13.60
2022-11-16T18:22:11.565Z,11.90
2022-11-16T18:23:43.335Z,12.18
2022-11-16T18:25:15.859Z,15.00
2022-11-16T18:26:47.629Z,12.30
2022-11-16T18:28:19.464Z,12.48
2022-11-16T18:29:51.203Z,11.88
2022-11-16T18:31:24.621Z,11.88
2022-11-16T18:32:56.360Z,11.80
2022-11-16T18:34:28.113Z,11.82
2022-11-16T18:35:59.856Z,11.48
2022-11-16T18:37:31.580Z,10.80
2022-11-16T18:39:03.344Z,9.55
2022-11-16T18:40:35.166Z,10.23
2022-11-16T18:42:07.426Z,9.82
2022-11-16T18:43:49.005Z,12.48
2022-11-16T18:45:20.772Z,11.13
2022-11-16T18:46:52.553Z,10.88
2022-11-16T18:48:24.304Z,9.40
2022-11-16T18:49:56.064Z,9.30
2022-11-16T18:51:28.932Z,8.27
2022-11-16T18:53:00.687Z,10.98
2022-11-16T18:54:32.441Z,8.60
2022-11-16T18:56:04.946Z,10.05
2022-11-16T18:57:36.719Z,9.23
2022-11-16T18:59:08.484Z,9.13
2022-11-16T19:00:40.208Z,11.05
2022-11-16T19:02:12.661Z,9.00
2022-11-16T19:03:44.671Z,10.57
2022-11-16T19:05:16.507Z,10.05
2022-11-16T19:06:48.323Z,9.32
2022-11-16T19:08:20.131Z,11.23
2022-11-16T19:09:51.879Z,10.77
2022-11-16T19:11:24.288Z,8.23
2022-11-16T19:12:56.220Z,11.25
2022-11-16T19:14:27.956Z,10.63
2022-11-16T19:15:59.690Z,10.25
2022-11-16T19:17:34.380Z,11.38
2022-11-16T19:19:07.379Z,10.15
2022-11-16T19:20:39.247Z,9.80
2022-11-16T19:22:10.965Z,9.75
2022-11-16T19:23:44.907Z,10.88
2022-11-16T19:25:16.641Z,11.30
2022-11-16T19:26:48.416Z,9.43
2022-11-16T19:28:20.154Z,9.35
2022-11-16T19:29:51.887Z,8.70
2022-11-16T19:31:29.318Z,9.52
2022-11-16T19:33:01.557Z,9.63
2022-11-16T19:34:33.669Z,11.68
2022-11-16T19:36:13.778Z,10.63
2022-11-16T19:37:45.504Z,11.63
2022-11-16T19:39:17.232Z,9.10
2022-11-16T19:40:50.754Z,10.05
2022-11-16T19:42:22.486Z,8.93
2022-11-16T19:43:58.891Z,10.25
2022-11-16T19:45:30.618Z,10.75
2022-11-16T19:47:02.341Z,10.65
2022-11-16T19:48:34.926Z,9.32
2022-11-16T19:50:10.050Z,10.55
2022-11-16T19:51:41.783Z,10.35
2022-11-16T19:53:13.526Z,9.52
2022-11-16T19:54:45.346Z,10.13
2022-11-16T19:56:19.217Z,8.98
2022-11-16T19:57:51.028Z,8.90
2022-11-16T19:59:22.863Z,9.65
2022-11-16T20:01:02.452Z,10.80
2022-11-16T20:02:36.602Z,11.52
2022-11-16T20:04:09.337Z,11.82
2022-11-16T20:05:42.226Z,10.30
2022-11-16T20:07:18.102Z,10.10
2022-11-16T20:08:56.071Z,10.95
2022-11-16T20:10:29.436Z,11.88
2022-11-16T20:12:01.241Z,10.63
2022-11-16T20:13:33.363Z,10.15
2022-11-16T20:15:06.387Z,11.40
2022-11-16T20:16:40.551Z,10.57
2022-11-16T20:18:12.378Z,10.18
2022-11-16T20:19:44.212Z,11.23
2022-11-16T20:21:26.067Z,9.77
2022-11-16T20:22:57.853Z,10.73
2022-11-16T20:24:29.753Z,11.77
2022-11-16T20:26:10.560Z,10.27
2022-11-16T20:27:42.464Z,9.73
2022-11-16T20:29:16.681Z,11.27
2022-11-16T20:30:48.531Z,11.02
2022-11-16T20:32:20.358Z,10.85
2022-11-16T20:34:00.267Z,11.10
2022-11-16T20:35:33.287Z,12.30
2022-11-16T20:37:06.778Z,11.07
2022-11-16T20:38:39.385Z,10.05
2022-11-16T20:40:11.517Z,9.15
2022-11-16T20:41:44.191Z,11.07
2022-11-16T20:43:15.951Z,11.38
2022-11-16T20:44:47.672Z,10.02
2022-11-16T20:46:21.555Z,10.75
2022-11-16T20:47:53.290Z,10.35
2022-11-16T20:49:25.085Z,11.68
2022-11-16T20:50:56.909Z,9.73
2022-11-16T20:52:28.727Z,11.65
2022-11-16T20:54:00.580Z,10.05
2022-11-16T20:55:32.719Z,11.43
2022-11-16T20:57:04.826Z,10.20
2022-11-16T20:58:37.566Z,10.93
2022-11-16T21:00:09.870Z,10.65
2022-11-16T21:01:47.608Z,11.57
2022-11-16T21:03:19.984Z,11.07
2022-11-16T21:04:56.073Z,11.60
2022-11-16T21:06:31.575Z,11.57
2022-11-16T21:08:03.314Z,10.98
2022-11-16T21:09:55.021Z,10.48
2022-11-16T21:11:30.007Z,13.63